Time;durP1;ratioP1;P1;durP2;ratioP2;P2;SDS_P1;SDS_P2;PMS_P1;PMS_P2;Temp;Humidity;BMP_temperature;BMP_pressure;BME280_temperature;BME280_humidity;BME280_pressure;Samples;Min_cycle;Max_cycle;Signal;HPM_P1;HPM_P2
2021/04/06 00:01:28;;;;;;;0.40;0.30;;;;;;;1.01;79.55;99942.66;5061269;28;20807;-80
2021/04/06 00:03:55;;;;;;;0.40;0.30;;;;;;;0.99;79.48;99947.44;5060889;28;20454;-79
2021/04/06 00:06:24;;;;;;;0.40;0.30;;;;;;;0.99;80.13;99942.13;5059863;28;20500;-79
2021/04/06 00:08:51;;;;;;;0.40;0.30;;;;;;;0.98;80.00;99946.66;5061228;28;20450;-80
2021/04/06 00:11:18;;;;;;;0.40;0.30;;;;;;;0.92;80.84;99952.16;5060469;28;20450;-79
2021/04/06 00:13:45;;;;;;;0.40;0.30;;;;;;;0.88;81.45;99951.06;5060991;28;20466;-79
2021/04/06 00:16:12;;;;;;;0.40;0.30;;;;;;;0.93;81.47;99948.44;5059670;28;20453;-78
2021/04/06 00:18:39;;;;;;;0.40;0.30;;;;;;;0.86;80.80;99945.19;5056497;28;20458;-77
2021/04/06 00:21:08;;;;;;;0.40;0.30;;;;;;;0.77;81.95;99938.72;5056623;28;20806;-77
2021/04/06 00:23:35;;;;;;;0.40;0.30;;;;;;;0.77;81.88;99939.50;5055581;28;20503;-78
2021/04/06 00:26:03;;;;;;;0.40;0.30;;;;;;;0.75;82.57;99941.59;5056139;28;20539;-77
2021/04/06 00:28:34;;;;;;;0.40;0.30;;;;;;;0.74;82.00;99951.47;5056569;28;20461;-78
2021/04/06 00:31:01;;;;;;;0.40;0.30;;;;;;;0.73;82.47;99957.88;5056365;28;20442;-78
2021/04/06 00:33:29;;;;;;;0.60;0.50;;;;;;;0.69;82.88;99955.94;5056627;28;21042;-78
2021/04/06 00:35:57;;;;;;;0.40;0.30;;;;;;;0.70;82.92;99960.22;5055593;28;20444;-77
2021/04/06 00:38:26;;;;;;;0.40;0.30;;;;;;;0.71;83.36;99952.00;5056414;28;20455;-77
2021/04/06 00:40:58;;;;;;;0.40;0.30;;;;;;;0.69;83.36;99962.09;5056493;28;20473;-78
2021/04/06 00:43:33;;;;;;;0.50;0.40;;;;;;;0.66;83.18;99951.91;5059086;28;20462;-78
2021/04/06 00:46:00;;;;;;;0.40;0.30;;;;;;;0.59;83.60;99963.84;5055246;28;20991;-78
2021/04/06 00:48:26;;;;;;;0.40;0.30;;;;;;;0.64;84.00;99962.03;5056442;28;20442;-77
2021/04/06 00:51:10;;;;;;;0.70;0.70;;;;;;;0.66;83.79;99959.91;5055004;28;20450;-77
2021/04/06 00:53:57;;;;;;;0.40;0.30;;;;;;;0.66;83.49;99965.25;5058510;28;20476;-77
2021/04/06 00:56:24;;;;;;;0.40;0.30;;;;;;;0.62;84.32;99969.50;5075485;28;20860;-77
2021/04/06 00:58:53;;;;;;;0.40;0.30;;;;;;;0.57;84.27;99966.75;5075640;28;20441;-77
2021/04/06 01:01:29;;;;;;;0.40;0.30;;;;;;;0.60;84.20;99976.91;5075589;28;20798;-77
2021/04/06 01:03:57;;;;;;;0.40;0.30;;;;;;;0.58;84.91;99967.56;5075442;28;20989;-77
2021/04/06 01:06:23;;;;;;;0.40;0.30;;;;;;;0.57;85.00;99965.94;5075386;28;20847;-77
2021/04/06 01:08:52;;;;;;;0.40;0.30;;;;;;;0.55;85.00;99968.88;5075683;28;20444;-77
2021/04/06 01:11:18;;;;;;;0.40;0.30;;;;;;;0.54;84.85;99967.25;5074889;28;20818;-78
2021/04/06 01:13:45;;;;;;;0.40;0.30;;;;;;;0.57;85.46;99968.59;5099594;22;20468;-67
2021/04/06 01:16:13;;;;;;;0.40;0.30;;;;;;;0.56;85.16;99970.47;5082727;28;21005;-68
2021/04/06 01:18:39;;;;;;;0.40;0.30;;;;;;;0.47;85.78;99978.09;5095412;28;20433;-67
2021/04/06 01:21:10;;;;;;;0.40;0.30;;;;;;;0.45;86.12;99980.22;5095303;28;20440;-67
2021/04/06 01:23:37;;;;;;;0.40;0.30;;;;;;;0.47;86.37;99979.97;5095383;28;20480;-68
2021/04/06 01:26:08;;;;;;;0.40;0.30;;;;;;;0.48;86.88;99974.38;5093891;28;21058;-67
2021/04/06 01:28:34;;;;;;;0.40;0.30;;;;;;;0.47;86.99;99983.44;5094832;28;20432;-67
2021/04/06 01:31:03;;;;;;;0.40;0.30;;;;;;;0.45;86.70;99968.75;5094774;28;20539;-67
2021/04/06 01:33:31;;;;;;;0.40;0.30;;;;;;;0.47;86.73;99977.28;5094650;28;20452;-67
2021/04/06 01:35:58;;;;;;;0.40;0.30;;;;;;;0.49;86.69;99973.34;5093782;28;20894;-68
2021/04/06 01:38:27;;;;;;;0.93;0.77;;;;;;;0.52;87.46;99980.00;5094866;28;20433;-67
2021/04/06 01:40:55;;;;;;;0.40;0.30;;;;;;;0.54;86.71;99985.13;5094271;28;20517;-68
2021/04/06 01:43:23;;;;;;;0.40;0.30;;;;;;;0.57;87.14;99980.06;5094745;28;20436;-68
2021/04/06 01:45:52;;;;;;;0.40;0.30;;;;;;;0.58;86.34;99972.91;5094273;28;20997;-68
2021/04/06 01:48:19;;;;;;;0.50;0.50;;;;;;;0.60;86.72;99974.25;5094771;28;20474;-67
2021/04/06 01:50:49;;;;;;;0.40;0.30;;;;;;;0.58;86.49;99976.38;5094542;28;20440;-66
2021/04/06 01:53:16;;;;;;;0.40;0.30;;;;;;;0.60;86.61;99970.78;5094095;28;20447;-67
2021/04/06 01:55:47;;;;;;;0.40;0.30;;;;;;;0.64;86.78;99971.91;5093811;28;20977;-66
2021/04/06 01:58:14;;;;;;;0.40;0.30;;;;;;;0.66;86.22;99970.56;5094555;28;20429;-67
2021/04/06 02:00:53;;;;;;;0.40;0.30;;;;;;;0.65;85.96;99973.50;5094449;28;20440;-67
2021/04/06 02:03:20;;;;;;;0.40;0.30;;;;;;;0.59;86.11;99977.16;5093667;28;20917;-68
2021/04/06 02:05:46;;;;;;;0.40;0.30;;;;;;;0.57;86.15;99977.41;5093806;28;21017;-67
2021/04/06 02:08:15;;;;;;;0.40;0.30;;;;;;;0.57;86.03;99987.25;5094298;28;20444;-67
2021/04/06 02:10:43;;;;;;;0.40;0.30;;;;;;;0.59;86.16;99985.97;5094325;28;20452;-67
2021/04/06 02:13:14;;;;;;;0.40;0.30;;;;;;;0.59;85.99;99987.84;5093697;28;21145;-68
2021/04/06 02:15:41;;;;;;;0.40;0.30;;;;;;;0.60;86.47;99986.78;5093112;28;21079;-69
2021/04/06 02:18:07;;;;;;;0.40;0.30;;;;;;;0.56;86.95;99983.78;5094157;28;20428;-67
2021/04/06 02:20:33;;;;;;;0.40;0.30;;;;;;;0.61;86.44;99983.03;5093595;28;20945;-66
2021/04/06 02:23:02;;;;;;;0.40;0.30;;;;;;;0.62;86.32;99989.97;5093069;28;20953;-67
2021/04/06 02:28:06;;;;;;;0.40;0.30;;;;;;;0.61;86.45;100005.16;5062659;28;20493;-69
2021/04/06 02:30:33;;;;;;;0.40;0.30;;;;;;;0.62;86.08;99996.13;5053854;28;20470;-71
2021/04/06 02:33:00;;;;;;;0.40;0.30;;;;;;;0.54;86.77;99991.25;5052855;28;20443;-70
2021/04/06 02:35:26;;;;;;;0.40;0.30;;;;;;;0.55;86.73;99998.19;5053518;28;20438;-70
2021/04/06 02:37:54;;;;;;;0.60;0.57;;;;;;;0.52;86.76;99985.34;5053256;28;20461;-70
2021/04/06 02:40:22;;;;;;;0.40;0.30;;;;;;;0.57;87.24;99993.38;5053538;28;20446;-70
2021/04/06 02:42:49;;;;;;;0.40;0.30;;;;;;;0.57;87.43;99992.59;5052598;28;20529;-70
2021/04/06 02:45:20;;;;;;;0.40;0.30;;;;;;;0.60;87.36;99992.91;5053568;28;20494;-70
2021/04/06 02:47:49;;;;;;;0.40;0.30;;;;;;;0.54;86.88;99999.25;5053294;28;20474;-69
2021/04/06 02:50:17;;;;;;;0.40;0.30;;;;;;;0.56;86.75;99996.31;5053351;28;20492;-70
2021/04/06 02:52:44;;;;;;;0.40;0.30;;;;;;;0.57;86.57;100011.25;5052456;28;20446;-70
2021/04/06 02:55:11;;;;;;;0.40;0.30;;;;;;;0.56;86.46;100014.97;5053337;28;20443;-71
2021/04/06 02:57:41;;;;;;;0.40;0.30;;;;;;;0.55;86.86;100013.38;5053153;28;20462;-69
2021/04/06 03:00:08;;;;;;;41.27;2.43;;;;;;;0.53;86.38;100010.94;5053215;28;20446;-70
2021/04/06 03:02:38;;;;;;;0.40;0.30;;;;;;;0.50;86.81;99998.13;5052502;28;20446;-70
2021/04/06 03:05:06;;;;;;;0.40;0.30;;;;;;;0.46;86.98;100002.34;5053106;28;20520;-70
2021/04/06 03:07:32;;;;;;;0.40;0.30;;;;;;;0.44;87.99;100009.75;5053098;28;20461;-69
2021/04/06 03:10:00;;;;;;;0.40;0.30;;;;;;;0.42;87.76;100003.88;5053208;28;20464;-70
2021/04/06 03:12:28;;;;;;;0.40;0.30;;;;;;;0.35;87.97;100001.38;5052442;28;20442;-70
2021/04/06 03:14:55;;;;;;;0.40;0.30;;;;;;;0.30;88.09;99992.53;5057622;28;20438;-70
2021/04/06 03:17:21;;;;;;;0.40;0.30;;;;;;;0.31;88.51;99994.97;5059654;28;20457;-70
2021/04/06 03:19:55;;;;;;;0.40;0.30;;;;;;;0.37;88.65;99996.63;5059427;28;21021;-70
2021/04/06 03:22:24;;;;;;;0.40;0.30;;;;;;;0.42;88.60;99987.91;5059705;28;20823;-70
2021/04/06 03:24:50;;;;;;;0.40;0.30;;;;;;;0.41;88.06;99989.75;5058700;28;20492;-70
2021/04/06 03:27:30;;;;;;;0.40;0.30;;;;;;;0.41;88.68;99986.28;5059261;28;20858;-69
2021/04/06 03:29:56;;;;;;;0.40;0.30;;;;;;;0.32;88.38;99995.78;5059868;28;20422;-71
2021/04/06 03:32:23;;;;;;;0.57;0.47;;;;;;;0.27;88.55;99985.88;5059370;28;20997;-71
2021/04/06 03:34:51;;;;;;;0.40;0.30;;;;;;;0.24;88.96;99989.81;5058580;28;20982;-71
2021/04/06 03:37:17;;;;;;;0.40;0.30;;;;;;;0.23;89.14;99993.53;5059139;28;20461;-69
2021/04/06 03:39:44;;;;;;;0.40;0.30;;;;;;;0.26;89.18;99994.88;5059473;28;20445;-69
2021/04/06 03:42:10;;;;;;;0.40;0.30;;;;;;;0.23;89.20;99996.22;5059366;28;20457;-69
2021/04/06 03:44:36;;;;;;;0.40;0.30;;;;;;;0.27;89.45;99993.03;5059400;28;20446;-69
2021/04/06 03:47:04;;;;;;;0.40;0.30;;;;;;;0.23;89.17;99998.88;5058600;28;20801;-71
2021/04/06 03:49:32;;;;;;;0.40;0.30;;;;;;;0.18;89.15;100001.47;5059796;28;20450;-71
2021/04/06 03:52:00;;;;;;;0.40;0.30;;;;;;;0.15;89.58;99991.31;5059447;28;20788;-69
2021/04/06 03:54:46;;;;;;;0.60;0.50;;;;;;;0.16;89.74;99990.25;5058999;28;20442;-69
2021/04/06 03:57:25;;;;;;;0.87;0.87;;;;;;;0.15;90.10;99990.50;5059007;28;20469;-69
2021/04/06 03:59:51;;;;;;;0.40;0.30;;;;;;;0.17;89.88;99989.19;5058937;28;20912;-69
2021/04/06 04:02:17;;;;;;;0.40;0.30;;;;;;;0.16;89.09;99987.59;5058770;28;20448;-70
2021/04/06 04:04:43;;;;;;;0.40;0.30;;;;;;;0.19;89.51;99986.28;5058871;28;20856;-69
2021/04/06 04:07:10;;;;;;;0.40;0.30;;;;;;;0.10;89.06;99982.44;5058951;28;20476;-69
2021/04/06 04:09:36;;;;;;;0.40;0.30;;;;;;;0.13;89.88;99989.94;5059221;28;20442;-69
2021/04/06 04:12:05;;;;;;;0.40;0.30;;;;;;;0.11;89.55;99984.84;5064310;28;20487;-70
2021/04/06 04:14:30;;;;;;;0.40;0.40;;;;;;;0.16;89.86;99976.13;5059660;28;20449;-69
2021/04/06 04:16:56;;;;;;;0.40;0.30;;;;;;;0.19;89.35;99980.97;5059232;28;20458;-70
2021/04/06 04:19:23;;;;;;;0.40;0.30;;;;;;;0.18;89.11;99984.69;5058934;28;20473;-69
2021/04/06 04:21:49;;;;;;;0.40;0.30;;;;;;;0.13;89.59;99977.41;5059163;28;20449;-70
2021/04/06 04:24:15;;;;;;;0.40;0.30;;;;;;;0.10;89.70;99977.13;5058061;28;20549;-69
2021/04/06 04:26:41;;;;;;;0.40;0.30;;;;;;;0.09;89.66;99971.00;5054860;28;20995;-70
2021/04/06 04:29:07;;;;;;;0.40;0.30;;;;;;;0.06;89.51;99971.50;5055966;28;20473;-69
2021/04/06 04:31:33;;;;;;;0.40;0.30;;;;;;;0.04;89.45;99976.25;5055632;28;20442;-70
2021/04/06 04:33:59;;;;;;;0.40;0.30;;;;;;;0.04;89.90;99975.44;5054925;28;20485;-70
2021/04/06 04:36:25;;;;;;;0.40;0.30;;;;;;;0.02;90.49;99970.38;5055800;28;20517;-70
2021/04/06 04:38:51;;;;;;;0.40;0.30;;;;;;;0.05;90.79;99975.22;5055829;28;20496;-70
2021/04/06 04:41:17;;;;;;;0.40;0.30;;;;;;;-0.01;90.36;99976.97;5055653;28;20434;-71
2021/04/06 04:43:43;;;;;;;0.60;0.60;;;;;;;-0.01;90.01;99974.31;5055498;28;21017;-70
2021/04/06 04:46:10;;;;;;;0.40;0.30;;;;;;;0.00;90.35;99972.47;5054428;28;20540;-71
2021/04/06 04:48:36;;;;;;;0.40;0.30;;;;;;;0.01;90.40;99978.59;5055536;28;20442;-69
2021/04/06 04:51:02;;;;;;;0.40;0.30;;;;;;;0.08;90.32;99979.22;5055515;28;20439;-70
2021/04/06 04:53:28;;;;;;;0.60;0.53;;;;;;;0.12;89.83;99981.13;5054611;28;20496;-70
2021/04/06 04:55:54;;;;;;;0.50;0.50;;;;;;;0.08;89.17;99980.03;5055338;28;20458;-70
2021/04/06 04:58:20;;;;;;;0.40;0.30;;;;;;;0.10;89.22;99979.78;5055388;28;20799;-70
2021/04/06 05:00:46;;;;;;;0.83;0.83;;;;;;;0.06;89.38;99984.78;5055267;28;20438;-69
2021/04/06 05:03:12;;;;;;;0.40;0.30;;;;;;;0.07;89.09;99983.75;5054425;28;20441;-70
2021/04/06 05:05:39;;;;;;;0.40;0.30;;;;;;;0.09;89.75;99986.97;5055318;28;20494;-74
2021/04/06 05:08:06;;;;;;;0.40;0.30;;;;;;;0.12;89.32;99978.47;5055248;28;20457;-74
2021/04/06 05:10:32;;;;;;;0.40;0.30;;;;;;;0.10;89.26;99974.47;5055425;28;20438;-74
2021/04/06 05:12:58;;;;;;;0.80;0.60;;;;;;;0.10;89.51;99982.44;5055467;28;20445;-69
2021/04/06 05:15:24;;;;;;;0.40;0.30;;;;;;;0.12;89.53;99983.81;5054270;28;20449;-68
2021/04/06 05:17:50;;;;;;;2.83;0.60;;;;;;;0.20;89.34;99986.03;5054968;28;20470;-68
2021/04/06 05:20:19;;;;;;;0.50;0.50;;;;;;;0.24;89.14;99978.38;5055080;28;20521;-69
2021/04/06 05:22:45;;;;;;;0.40;0.30;;;;;;;0.28;88.81;99981.34;5054309;28;20449;-69
2021/04/06 05:25:11;;;;;;;0.40;0.30;;;;;;;0.30;88.72;99977.38;5054592;28;20858;-69
2021/04/06 05:27:37;;;;;;;0.77;0.77;;;;;;;0.31;89.00;99973.66;5054513;28;20493;-72
2021/04/06 05:30:05;;;;;;;0.40;0.30;;;;;;;0.37;88.61;99977.19;5054970;28;20807;-72
2021/04/06 05:32:31;;;;;;;0.40;0.30;;;;;;;0.42;88.36;99979.91;5054882;28;20446;-73
2021/04/06 05:34:56;;;;;;;0.40;0.30;;;;;;;0.41;88.45;99976.44;5053998;28;20503;-73
2021/04/06 05:37:23;;;;;;;0.40;0.30;;;;;;;0.48;88.50;99978.91;5054260;28;20838;-71
2021/04/06 05:39:49;;;;;;;0.40;0.40;;;;;;;0.50;87.71;99982.13;5054810;28;20441;-72
2021/04/06 05:42:16;;;;;;;0.40;0.30;;;;;;;0.49;87.52;99980.53;5053825;28;20866;-72
2021/04/06 05:44:43;;;;;;;3.33;1.10;;;;;;;0.52;88.43;99976.56;5054029;28;20447;-73
2021/04/06 05:47:18;;;;;;;0.40;0.30;;;;;;;0.55;87.76;99973.41;5054339;28;21045;-73
2021/04/06 05:49:44;;;;;;;0.40;0.30;;;;;;;0.56;87.43;99972.34;5054459;28;20437;-74
2021/04/06 05:52:10;;;;;;;0.40;0.30;;;;;;;0.53;87.79;99970.16;5054478;28;20830;-74
2021/04/06 05:54:37;;;;;;;0.40;0.33;;;;;;;0.53;87.90;99964.84;5053497;28;20438;-73
2021/04/06 05:57:04;;;;;;;0.40;0.40;;;;;;;0.54;87.72;99972.59;5065514;28;20466;-73
2021/04/06 05:59:30;;;;;;;0.40;0.30;;;;;;;0.57;87.69;99963.28;5054332;28;20480;-72
2021/04/06 06:01:56;;;;;;;0.50;0.40;;;;;;;0.53;87.76;99970.97;5054177;28;20438;-71
2021/04/06 06:04:22;;;;;;;0.40;0.30;;;;;;;0.60;87.72;99976.13;5053496;28;20446;-71
2021/04/06 06:06:48;;;;;;;0.50;0.40;;;;;;;0.65;87.43;99974.28;5053873;28;20486;-72
2021/04/06 06:09:28;;;;;;;0.40;0.30;;;;;;;0.70;87.55;99974.34;5053820;28;20621;-70
2021/04/06 06:12:00;;;;;;;0.40;0.30;;;;;;;0.74;87.83;99967.47;5054121;28;20450;-72
2021/04/06 06:14:28;;;;;;;0.40;0.30;;;;;;;0.76;87.64;99975.22;5053382;28;20445;-73
2021/04/06 06:16:54;;;;;;;0.40;0.30;;;;;;;0.83;87.71;99981.16;5053926;28;20458;-72
2021/04/06 06:19:20;;;;;;;0.50;0.50;;;;;;;0.94;87.31;99984.72;5053896;28;20438;-72
2021/04/06 06:21:49;;;;;;;0.40;0.30;;;;;;;0.99;86.83;99984.78;5053698;28;20431;-73
2021/04/06 06:24:24;;;;;;;0.40;0.30;;;;;;;1.05;86.71;99981.09;5052980;28;20865;-72
2021/04/06 06:26:50;;;;;;;1.17;0.50;;;;;;;1.07;86.32;99979.00;5053324;28;20963;-73
2021/04/06 06:29:20;;;;;;;0.40;0.30;;;;;;;1.14;85.87;99979.56;5053799;28;20450;-72
2021/04/06 06:31:48;;;;;;;0.40;0.30;;;;;;;1.19;85.82;99973.47;5053647;28;20437;-72
2021/04/06 06:34:26;;;;;;;0.40;0.30;;;;;;;1.23;85.95;99975.38;5052733;28;20435;-72
2021/04/06 06:37:03;;;;;;;0.40;0.30;;;;;;;1.31;86.06;99986.66;5053697;28;20465;-72
2021/04/06 06:39:30;;;;;;;3.13;0.60;;;;;;;1.47;85.79;99985.72;5053498;28;20438;-72
2021/04/06 06:42:00;;;;;;;0.40;0.30;;;;;;;1.55;85.65;99979.91;5053261;28;20446;-73
2021/04/06 06:44:29;;;;;;;0.40;0.30;;;;;;;1.69;84.86;99978.41;5052523;28;20958;-73
2021/04/06 06:47:06;;;;;;;0.40;0.30;;;;;;;1.83;84.55;99977.94;5053343;28;20548;-73
2021/04/06 06:49:35;;;;;;;0.50;0.40;;;;;;;1.87;84.11;99982.50;5052717;28;20441;-72
2021/04/06 06:52:00;;;;;;;0.40;0.30;;;;;;;1.96;84.15;99980.97;5053416;28;20532;-70
2021/04/06 06:54:38;;;;;;;0.40;0.30;;;;;;;2.07;84.07;99981.00;5053508;28;20454;-70
2021/04/06 06:57:10;;;;;;;0.40;0.30;;;;;;;2.07;83.37;99973.78;5052422;28;20462;-70
2021/04/06 06:59:39;;;;;;;0.40;0.30;;;;;;;2.19;82.97;99982.41;5052072;28;20480;-70
2021/04/06 07:02:21;;;;;;;0.40;0.30;;;;;;;2.22;82.70;99989.91;5052918;28;20815;-71
2021/04/06 07:04:48;;;;;;;0.40;0.30;;;;;;;2.30;82.11;99966.41;5053182;28;20457;-70
2021/04/06 07:07:14;;;;;;;0.40;0.30;;;;;;;2.35;82.08;99974.47;5052216;28;20466;-70
2021/04/06 07:09:40;;;;;;;0.40;0.30;;;;;;;2.44;82.27;99967.56;5053119;28;20444;-70
2021/04/06 07:12:08;;;;;;;0.60;0.60;;;;;;;2.59;81.62;99972.13;5053140;28;20442;-70
2021/04/06 07:14:35;;;;;;;0.40;0.30;;;;;;;2.59;81.06;99972.94;5052673;28;20449;-70
2021/04/06 07:17:07;;;;;;;0.40;0.30;;;;;;;2.52;81.08;99964.34;5052318;28;20458;-69
2021/04/06 07:19:36;;;;;;;0.40;0.30;;;;;;;2.58;81.35;99965.19;5053154;28;20429;-69
2021/04/06 07:22:04;;;;;;;0.40;0.30;;;;;;;2.64;80.72;99974.81;5052665;28;20951;-70
2021/04/06 07:24:33;;;;;;;0.40;0.30;;;;;;;2.58;81.08;99962.50;5041250;28;20530;-70
2021/04/06 07:27:03;;;;;;;0.40;0.30;;;;;;;2.65;81.17;99969.19;5029662;28;20493;-70
2021/04/06 07:29:30;;;;;;;0.70;0.50;;;;;;;2.75;80.82;99971.91;5032414;28;20451;-70
2021/04/06 07:31:57;;;;;;;0.40;0.30;;;;;;;2.90;80.46;99970.31;5032521;28;20443;-71
2021/04/06 07:34:25;;;;;;;0.40;0.30;;;;;;;2.95;80.00;99973.00;5032609;28;20446;-70
2021/04/06 07:36:53;;;;;;;0.40;0.30;;;;;;;3.03;80.05;99975.97;5032394;28;20454;-69
2021/04/06 07:39:19;;;;;;;0.40;0.30;;;;;;;2.99;80.02;99969.53;5012220;28;20439;-71
2021/04/06 07:41:46;;;;;;;0.40;0.30;;;;;;;2.99;79.44;99974.09;5021863;28;20466;-68
2021/04/06 07:44:14;;;;;;;0.40;0.30;;;;;;;3.06;79.90;99963.94;5015426;28;20451;-69
2021/04/06 07:46:44;;;;;;;0.40;0.30;;;;;;;3.03;80.04;99983.19;5051832;28;20517;-69
2021/04/06 07:49:11;;;;;;;0.40;0.30;;;;;;;3.07;79.52;99975.44;5052342;28;20824;-69
2021/04/06 07:51:40;;;;;;;4.87;0.90;;;;;;;3.20;79.64;99985.63;5052688;28;20446;-71
2021/04/06 07:54:08;;;;;;;0.40;0.30;;;;;;;3.35;79.57;99969.56;5052385;28;20962;-70
2021/04/06 07:56:52;;;;;;;0.40;0.30;;;;;;;3.58;78.43;99976.22;5051952;28;20470;-71
2021/04/06 07:59:57;;;;;;;0.40;0.40;;;;;;;3.72;77.66;99971.94;5052673;28;20422;-70
2021/04/06 08:02:29;;;;;;;0.40;0.40;;;;;;;3.87;77.96;99973.78;5055997;28;20457;-71
2021/04/06 08:05:07;;;;;;;0.70;0.70;;;;;;;3.93;76.89;99969.19;5055421;28;20426;-71
2021/04/06 08:07:36;;;;;;;0.40;0.30;;;;;;;3.90;76.77;99977.78;5056131;28;20458;-69
2021/04/06 08:10:38;;;;;;;0.40;0.30;;;;;;;3.87;76.49;99972.97;5056232;28;20442;-69
2021/04/06 08:13:05;;;;;;;0.60;0.47;;;;;;;3.88;76.83;99974.56;5055363;28;20457;-69
2021/04/06 08:15:32;;;;;;;0.40;0.30;;;;;;;3.86;76.60;99972.19;5055933;28;20438;-69
2021/04/06 08:17:59;;;;;;;0.40;0.30;;;;;;;3.94;77.29;99968.94;5056121;28;20496;-69
2021/04/06 08:20:48;;;;;;;0.40;0.30;;;;;;;3.91;75.80;99969.47;5056190;28;20503;-69
2021/04/06 08:23:34;;;;;;;0.40;0.30;;;;;;;3.88;77.29;99963.84;5055159;28;20942;-70
2021/04/06 08:26:00;;;;;;;0.40;0.30;;;;;;;4.06;76.96;99965.94;5054790;28;20516;-69
2021/04/06 08:28:38;;;;;;;0.40;0.30;;;;;;;4.16;76.23;99979.34;5114551;22;20850;-67
2021/04/06 08:31:26;;;;;;;0.40;0.30;;;;;;;4.06;77.16;99976.66;5096451;28;20424;-67
2021/04/06 08:33:53;;;;;;;0.90;0.40;;;;;;;4.05;75.65;99978.53;5094990;28;20808;-67
2021/04/06 08:36:26;;;;;;;0.40;0.30;;;;;;;3.93;76.67;99982.59;5095834;28;20444;-67
2021/04/06 08:38:54;;;;;;;0.40;0.30;;;;;;;3.91;76.81;99977.50;5075621;28;20462;-68
2021/04/06 08:41:37;;;;;;;0.40;0.30;;;;;;;3.92;77.16;99978.31;5074778;28;20445;-68
2021/04/06 08:44:06;;;;;;;0.40;0.30;;;;;;;3.97;77.23;99973.75;5074522;28;20833;-67
2021/04/06 08:46:46;;;;;;;0.40;0.30;;;;;;;4.09;77.06;99986.84;5075615;28;20476;-67
2021/04/06 08:49:14;;;;;;;0.40;0.30;;;;;;;4.07;76.87;99990.84;5074978;28;20426;-67
2021/04/06 08:51:42;;;;;;;0.40;0.30;;;;;;;4.05;76.88;99993.81;5074925;28;20972;-67
2021/04/06 08:54:12;;;;;;;0.40;0.30;;;;;;;3.97;76.98;99997.84;5075445;28;20547;-68
2021/04/06 08:56:42;;;;;;;0.40;0.40;;;;;;;4.04;77.00;99995.69;5074721;28;20449;-67
2021/04/06 08:59:13;;;;;;;0.97;0.97;;;;;;;4.18;76.54;99995.94;5075554;28;20478;-67
2021/04/06 09:01:39;;;;;;;0.50;0.40;;;;;;;4.30;76.49;99993.75;5075167;28;20441;-67
2021/04/06 09:04:11;;;;;;;0.40;0.30;;;;;;;4.50;76.11;99986.69;5075074;28;21012;-65
2021/04/06 09:06:37;;;;;;;0.40;0.30;;;;;;;4.70;74.83;99989.28;5074785;28;20477;-68
2021/04/06 09:09:03;;;;;;;0.40;0.30;;;;;;;4.70;74.35;99997.31;5075338;28;20563;-67
2021/04/06 09:11:31;;;;;;;0.40;0.30;;;;;;;4.68;73.65;100004.84;5074558;28;20471;-67
2021/04/06 09:13:57;;;;;;;0.40;0.30;;;;;;;4.76;73.56;99995.41;5074598;28;20471;-67
2021/04/06 09:16:24;;;;;;;0.40;0.30;;;;;;;4.84;73.11;100004.78;5075104;28;20440;-67
2021/04/06 09:18:53;;;;;;;0.40;0.30;;;;;;;4.73;72.52;99983.34;5075048;28;20453;-67
2021/04/06 09:21:22;;;;;;;0.40;0.33;;;;;;;4.80;72.94;99989.22;5074771;28;20441;-66
2021/04/06 09:23:51;;;;;;;0.40;0.30;;;;;;;4.59;72.73;99981.56;5075227;28;20460;-64
2021/04/06 09:26:17;;;;;;;0.40;0.40;;;;;;;4.54;73.77;99982.38;5074395;28;20509;-66
2021/04/06 09:28:44;;;;;;;0.40;0.30;;;;;;;4.69;73.24;99979.63;5074596;28;20473;-66
2021/04/06 09:31:11;;;;;;;0.40;0.30;;;;;;;4.87;72.12;99980.03;5075077;28;20467;-66
2021/04/06 09:33:38;;;;;;;0.50;0.50;;;;;;;4.87;71.04;99974.69;5074099;28;20453;-67
2021/04/06 09:36:05;;;;;;;1.17;0.50;;;;;;;4.96;70.33;99986.44;5074705;28;20453;-65
2021/04/06 09:38:36;;;;;;;2.20;2.00;;;;;;;5.09;68.38;99980.47;5074691;28;20464;-67
2021/04/06 09:41:02;;;;;;;0.40;0.30;;;;;;;5.19;67.45;99983.06;5074948;28;20429;-67
2021/04/06 09:43:28;;;;;;;0.40;0.30;;;;;;;5.16;67.45;99982.81;5073875;28;20446;-67
2021/04/06 09:45:55;;;;;;;0.40;0.30;;;;;;;5.35;67.10;99982.94;5074797;28;20477;-67
2021/04/06 09:48:21;;;;;;;0.40;0.30;;;;;;;5.70;68.03;99976.44;5074874;28;20469;-68
2021/04/06 09:50:58;;;;;;;0.40;0.30;;;;;;;5.89;66.42;99971.16;5074770;28;20454;-67
2021/04/06 09:53:24;;;;;;;0.40;0.30;;;;;;;6.10;65.35;99958.31;5074346;28;20445;-66
2021/04/06 09:55:51;;;;;;;0.40;0.30;;;;;;;6.30;65.69;99977.72;5073902;28;20519;-66
2021/04/06 09:58:17;;;;;;;0.40;0.30;;;;;;;6.39;62.75;99960.94;5074400;28;20456;-66
2021/04/06 10:00:45;;;;;;;0.40;0.30;;;;;;;6.35;62.91;99976.06;5074136;28;20946;-67
2021/04/06 10:03:14;;;;;;;0.50;0.50;;;;;;;6.10;62.57;99959.13;5073458;28;20438;-67
2021/04/06 10:05:44;;;;;;;0.40;0.30;;;;;;;6.15;63.99;99961.75;5074159;28;21124;-66
2021/04/06 10:08:11;;;;;;;0.40;0.30;;;;;;;6.04;62.68;99952.22;5074187;28;20495;-67
2021/04/06 10:10:46;;;;;;;1.70;1.13;;;;;;;6.02;62.84;99949.00;5065693;28;20493;-67
2021/04/06 10:13:12;;;;;;;0.40;0.37;;;;;;;6.05;63.16;99964.56;5053194;28;20428;-68
2021/04/06 10:15:39;;;;;;;1.90;1.80;;;;;;;5.87;64.05;99960.69;5053851;28;20956;-68
2021/04/06 10:18:10;;;;;;;0.70;0.40;;;;;;;5.64;64.77;99959.59;5054237;28;20466;-67
2021/04/06 10:20:40;;;;;;;0.50;0.47;;;;;;;5.36;65.18;99955.00;5054037;28;20450;-67
2021/04/06 10:23:07;;;;;;;0.50;0.50;;;;;;;5.49;67.38;99944.41;5053108;28;20442;-68
2021/04/06 10:25:37;;;;;;;0.40;0.30;;;;;;;5.86;65.74;99947.53;5053429;28;20536;-68
2021/04/06 10:28:05;;;;;;;0.50;0.40;;;;;;;5.94;63.92;99949.66;5053795;28;20478;-67
2021/04/06 10:30:36;;;;;;;0.40;0.30;;;;;;;6.02;64.08;99946.31;5053759;28;20442;-67
2021/04/06 10:33:05;;;;;;;1.13;0.83;;;;;;;6.26;64.20;99940.94;5054085;28;20426;-67
2021/04/06 10:35:33;;;;;;;0.47;0.33;;;;;;;6.41;62.69;99932.66;5053389;28;20442;-68
2021/04/06 10:38:02;;;;;;;0.50;0.40;;;;;;;6.70;63.33;99924.47;5053787;28;20470;-67
2021/04/06 10:40:32;;;;;;;0.50;0.40;;;;;;;7.03;59.03;99927.19;5053871;28;20653;-67
2021/04/06 10:43:00;;;;;;;0.40;0.30;;;;;;;7.06;56.90;99930.09;5053831;28;20446;-67
2021/04/06 10:45:29;;;;;;;0.60;0.40;;;;;;;6.83;56.10;99906.78;5053460;28;20478;-67
2021/04/06 10:48:04;;;;;;;0.40;0.30;;;;;;;6.92;57.97;99926.56;5053096;28;20462;-66
2021/04/06 10:50:32;;;;;;;0.40;0.30;;;;;;;6.87;57.00;99929.34;5052976;28;20426;-66
2021/04/06 10:52:58;;;;;;;0.40;0.20;;;;;;;6.80;58.11;99928.88;5063240;28;20445;-67
2021/04/06 10:55:36;;;;;;;0.60;0.40;;;;;;;6.29;59.55;99916.16;5073590;28;20441;-67
2021/04/06 10:58:04;;;;;;;0.40;0.30;;;;;;;6.06;62.65;99909.69;5072837;28;20453;-68
2021/04/06 11:00:31;;;;;;;0.90;0.63;;;;;;;6.16;64.81;99906.91;5073507;28;20446;-66
2021/04/06 11:03:12;;;;;;;0.40;0.30;;;;;;;6.41;62.66;99903.06;5073236;28;20452;-66
2021/04/06 11:05:39;;;;;;;0.60;0.60;;;;;;;6.71;62.39;99904.53;5073463;28;20477;-67
2021/04/06 11:08:22;;;;;;;0.50;0.40;;;;;;;6.68;59.58;99899.72;5072157;28;20468;-67
2021/04/06 11:10:53;;;;;;;1.90;0.73;;;;;;;6.66;59.18;99891.16;5073025;28;20524;-68
2021/04/06 11:13:19;;;;;;;0.40;0.30;;;;;;;6.67;59.57;99884.66;5073153;28;20421;-67
2021/04/06 11:15:46;;;;;;;0.40;0.30;;;;;;;6.71;58.79;99892.97;5073228;28;20441;-67
2021/04/06 11:18:12;;;;;;;0.40;0.30;;;;;;;6.76;57.13;99885.59;5072042;28;21053;-67
2021/04/06 11:20:39;;;;;;;0.40;0.30;;;;;;;6.71;56.34;99896.44;5073161;28;20464;-67
2021/04/06 11:23:05;;;;;;;0.40;0.30;;;;;;;6.55;57.96;99924.66;5073207;28;20490;-68
2021/04/06 11:25:32;;;;;;;0.40;0.30;;;;;;;6.02;61.35;99927.47;5073141;28;20488;-67
2021/04/06 11:27:59;;;;;;;0.60;0.60;;;;;;;5.32;64.13;99927.91;5072708;28;20491;-67
2021/04/06 11:30:31;;;;;;;0.40;0.30;;;;;;;4.70;69.69;99924.09;5072356;28;20444;-67
2021/04/06 11:32:58;;;;;;;0.70;0.50;;;;;;;4.40;72.45;99896.38;5073061;28;20418;-67
2021/04/06 11:35:24;;;;;;;0.40;0.30;;;;;;;4.35;73.42;99903.66;5074222;28;20436;-64
2021/04/06 11:37:50;;;;;;;0.40;0.30;;;;;;;4.72;77.15;99893.22;5076135;28;21034;-65
2021/04/06 11:40:16;;;;;;;0.40;0.30;;;;;;;6.25;74.21;99907.84;5076931;28;20456;-65
2021/04/06 11:42:42;;;;;;;0.40;0.30;;;;;;;7.65;68.93;99892.72;5077229;28;20441;-65
2021/04/06 11:45:10;;;;;;;0.53;0.53;;;;;;;8.48;60.04;99895.38;5076516;28;20441;-66
2021/04/06 11:47:36;;;;;;;0.40;0.40;;;;;;;8.44;58.36;99895.19;5076679;28;20875;-66
2021/04/06 11:50:06;;;;;;;0.40;0.30;;;;;;;7.75;58.21;99887.16;5075967;28;20947;-66
2021/04/06 11:52:32;;;;;;;0.40;0.30;;;;;;;7.70;57.09;99889.13;5076767;28;20449;-64